Alton, Iowa
Current Conditions -  °F | °C
As of 2:35 AM on Friday 19 Dec 2014 (Local Time) from KORC Reporting Station
Haze Haze  
Wind Chill: 22°   Ceiling: 800
Heat Index: 28°   Visibility: 3mi
Dew Point: 27°   Wind: 6mph
Humidity: 93%   Direction: 190°S
Pressure: 30.19"   Gusts: NA
Location:  42.99°N, 96.01°W
Report Text: KORC 190835Z AUTO 19005KT 3SM BR OVC008 M02/M03 A3019 RMK AO2
Loading
Personal Weather Stations






























Interactive Weather Map New forecast layout! Learn more

10-Day Weather Forecast

Advertisements
Track Severe Weather on mobile